Airfield :
LOGIN :

Register | Disclaimer

   EN    FR    IT 

 










Legend :    VFR   Marginal VFR   IFR   Intensive IFR   Very Intensive IFR
Visi :
Ceiling :
>= 8 km
>= 3000ft
5 to 8 km
1000 to 3000 ft
1500m to 5 km
500 to 1000 ft
800 to 1500m
200 to 500 ft
< 800m
< 200 ft
Symbols :   Thunderstorms  Fog  Heavy snow  Heavy precipitations  Wind > 20 kt
SIGMETs :     Misc.  Thunderstorms  Icing  Turbulence  Mountain Waves  Volcanic Ashes







- Airport Elevation : 538 ft
- IATA code : TNF
- Download approach charts


LFPN - Toussus Le Noble

CURRENT METAR :
  • 192000Z AUTO 19012KT CAVOK 16/12 Q1007 NOSIG

EXPIRED METARs :
  • 191930Z AUTO 17011KT CAVOK 16/12 Q1007 NOSIG
  • 191900Z AUTO 18010KT CAVOK 17/12 Q1007 NOSIG
  • 191830Z AUTO 17010KT 9999 FEW049 17/12 Q1007 NOSIG
  • 191800Z AUTO 19008KT CAVOK 17/13 Q1008 NOSIG
  • 191730Z AUTO 18008KT 9999 BKN049 17/13 Q1008 NOSIG

TAF TAF LFPN
Valid from the 19 at 18:00 until the 20 at 03:00 UTC


191700Z 1918/2003 22008KT 9999 SCT030
PROB40
TEMPO 2000/2003 23015G25KT 3000 RA BKN010
ATIS : +33 1 39 56 54 70
No reported NOTAMs for that airfield.
1 SIGMET reported for the Paris FIR (LFFF) :
 
Severe turbulence
LFFF SIGMET 1 VALID 191900/192300 LFPW
LFFF PARIS FIR/UIR SEV TURB FCST W OF LINE N4815 W00015 - N5015 E00030 SFC/FL060 MOV NE 30KT NC=



MET'MAP, your aeronautical weather chart ! - Copyright ORBIFLY December 2007 - Disclaimer

ORBIFLY MET'MAP TEAM :

Programming & Development : Alexandra Zaïnal
Concept & Development : Baudouin d'Aumeries
Co-Development & Prog : Marc-Olivier Méhu
Technical & hardware support : Manuel Goepfert

Contact : metmap@orbifly.com




SOURCES & CREDITS :

   NOAA